Terminal Aerodrome Forecast
Issued by NWS

Home | Current Version | Previous Version | Text Only | Print | Product List | Glossary On
Versions: 1 2 3 4 5 6 7 8 9 10 11 12 13 14 15 16 17 18 19 20 21 22 23 24 25 26 27 28 29
000
FTUS41 KPHI 260500 AAC
TAFPNE
TAF AMD
KPNE 260506Z 2605/2624 03010KT 6SM -SN BKN020 OVC035
     FM260700 05012KT 2SM -SN OVC015
     FM260900 06012G20KT 1SM -SN OVC009
     FM261500 05014G24KT 2SM -SN OVC009
     FM262100 04016G26KT 1SM -SN OVC007=

USA.gov is the U.S. government's official web portal to all federal, state and local government web resources and services.